sensor_id;sensor_type;location;lat;lon;timestamp;P1;durP1;ratioP1;P2;durP2;ratioP2
35326;SDS011;21436;52.348;20.928;2023-12-14T00:01:24;78.82;;;26.15;;
35326;SDS011;21436;52.348;20.928;2023-12-14T00:03:52;76.50;;;26.67;;
35326;SDS011;21436;52.348;20.928;2023-12-14T00:06:21;78.55;;;27.60;;
35326;SDS011;21436;52.348;20.928;2023-12-14T00:08:51;76.95;;;27.20;;
35326;SDS011;21436;52.348;20.928;2023-12-14T00:11:19;81.53;;;26.98;;
35326;SDS011;21436;52.348;20.928;2023-12-14T00:13:47;83.50;;;27.00;;
35326;SDS011;21436;52.348;20.928;2023-12-14T00:16:15;80.63;;;26.70;;
35326;SDS011;21436;52.348;20.928;2023-12-14T00:18:43;75.88;;;24.75;;
35326;SDS011;21436;52.348;20.928;2023-12-14T00:21:11;92.55;;;27.52;;
35326;SDS011;21436;52.348;20.928;2023-12-14T00:23:39;74.68;;;26.60;;
35326;SDS011;21436;52.348;20.928;2023-12-14T00:26:09;83.18;;;26.02;;
35326;SDS011;21436;52.348;20.928;2023-12-14T00:28:37;85.93;;;27.40;;
35326;SDS011;21436;52.348;20.928;2023-12-14T00:31:05;83.50;;;25.83;;
35326;SDS011;21436;52.348;20.928;2023-12-14T00:33:33;82.30;;;26.25;;
35326;SDS011;21436;52.348;20.928;2023-12-14T00:36:01;78.72;;;26.30;;
35326;SDS011;21436;52.348;20.928;2023-12-14T00:38:29;74.50;;;25.92;;
35326;SDS011;21436;52.348;20.928;2023-12-14T00:40:57;78.25;;;25.70;;
35326;SDS011;21436;52.348;20.928;2023-12-14T00:43:25;83.22;;;25.80;;
35326;SDS011;21436;52.348;20.928;2023-12-14T00:45:54;67.80;;;24.35;;
35326;SDS011;21436;52.348;20.928;2023-12-14T00:48:22;73.47;;;26.17;;
35326;SDS011;21436;52.348;20.928;2023-12-14T00:50:50;77.70;;;26.48;;
35326;SDS011;21436;52.348;20.928;2023-12-14T00:53:17;75.63;;;23.23;;
35326;SDS011;21436;52.348;20.928;2023-12-14T00:55:45;82.43;;;25.42;;
35326;SDS011;21436;52.348;20.928;2023-12-14T00:58:13;77.03;;;24.75;;
35326;SDS011;21436;52.348;20.928;2023-12-14T01:00:41;77.93;;;23.65;;
35326;SDS011;21436;52.348;20.928;2023-12-14T01:03:09;66.00;;;23.40;;
35326;SDS011;21436;52.348;20.928;2023-12-14T01:05:38;68.30;;;22.25;;
35326;SDS011;21436;52.348;20.928;2023-12-14T01:08:06;71.82;;;23.33;;
35326;SDS011;21436;52.348;20.928;2023-12-14T01:10:35;70.53;;;23.13;;
35326;SDS011;21436;52.348;20.928;2023-12-14T01:13:04;67.18;;;24.73;;
35326;SDS011;21436;52.348;20.928;2023-12-14T01:15:32;63.05;;;23.42;;
35326;SDS011;21436;52.348;20.928;2023-12-14T01:18:00;44.85;;;17.52;;
35326;SDS011;21436;52.348;20.928;2023-12-14T01:20:28;62.72;;;22.27;;
35326;SDS011;21436;52.348;20.928;2023-12-14T01:22:56;66.80;;;23.80;;
35326;SDS011;21436;52.348;20.928;2023-12-14T01:25:24;64.10;;;22.40;;
35326;SDS011;21436;52.348;20.928;2023-12-14T01:27:52;76.78;;;23.00;;
35326;SDS011;21436;52.348;20.928;2023-12-14T01:30:21;69.03;;;23.55;;
35326;SDS011;21436;52.348;20.928;2023-12-14T01:32:48;61.10;;;20.33;;
35326;SDS011;21436;52.348;20.928;2023-12-14T01:35:17;70.47;;;20.42;;
35326;SDS011;21436;52.348;20.928;2023-12-14T01:37:45;41.45;;;15.60;;
35326;SDS011;21436;52.348;20.928;2023-12-14T01:40:13;50.60;;;18.98;;
35326;SDS011;21436;52.348;20.928;2023-12-14T01:42:41;61.60;;;22.30;;
35326;SDS011;21436;52.348;20.928;2023-12-14T01:45:09;61.88;;;20.23;;
35326;SDS011;21436;52.348;20.928;2023-12-14T01:47:37;64.25;;;20.40;;
35326;SDS011;21436;52.348;20.928;2023-12-14T01:50:05;69.88;;;22.75;;
35326;SDS011;21436;52.348;20.928;2023-12-14T01:52:33;68.47;;;22.95;;
35326;SDS011;21436;52.348;20.928;2023-12-14T01:55:02;65.05;;;22.17;;
35326;SDS011;21436;52.348;20.928;2023-12-14T01:57:30;63.53;;;21.02;;
35326;SDS011;21436;52.348;20.928;2023-12-14T01:59:58;66.25;;;22.33;;
35326;SDS011;21436;52.348;20.928;2023-12-14T02:02:26;63.63;;;22.77;;
35326;SDS011;21436;52.348;20.928;2023-12-14T02:04:55;63.22;;;23.35;;
35326;SDS011;21436;52.348;20.928;2023-12-14T02:07:22;69.47;;;22.77;;
35326;SDS011;21436;52.348;20.928;2023-12-14T02:09:51;71.90;;;23.55;;
35326;SDS011;21436;52.348;20.928;2023-12-14T02:12:19;65.20;;;22.58;;
35326;SDS011;21436;52.348;20.928;2023-12-14T02:14:48;70.05;;;22.60;;
35326;SDS011;21436;52.348;20.928;2023-12-14T02:17:16;68.53;;;23.67;;
35326;SDS011;21436;52.348;20.928;2023-12-14T02:19:44;76.93;;;23.42;;
35326;SDS011;21436;52.348;20.928;2023-12-14T02:22:11;65.28;;;22.83;;
35326;SDS011;21436;52.348;20.928;2023-12-14T02:24:39;74.88;;;22.95;;
35326;SDS011;21436;52.348;20.928;2023-12-14T02:27:07;78.55;;;23.95;;
35326;SDS011;21436;52.348;20.928;2023-12-14T02:29:35;71.85;;;21.13;;
35326;SDS011;21436;52.348;20.928;2023-12-14T02:32:03;76.60;;;22.73;;
35326;SDS011;21436;52.348;20.928;2023-12-14T02:34:32;70.25;;;20.33;;
35326;SDS011;21436;52.348;20.928;2023-12-14T02:37:00;84.03;;;23.52;;
35326;SDS011;21436;52.348;20.928;2023-12-14T02:39:28;68.50;;;22.85;;
35326;SDS011;21436;52.348;20.928;2023-12-14T02:41:56;82.45;;;24.05;;
35326;SDS011;21436;52.348;20.928;2023-12-14T02:44:24;80.65;;;24.50;;
35326;SDS011;21436;52.348;20.928;2023-12-14T02:46:52;84.18;;;25.52;;
35326;SDS011;21436;52.348;20.928;2023-12-14T02:49:20;90.20;;;26.67;;
35326;SDS011;21436;52.348;20.928;2023-12-14T02:51:48;79.05;;;22.80;;
35326;SDS011;21436;52.348;20.928;2023-12-14T02:54:17;97.32;;;26.15;;
35326;SDS011;21436;52.348;20.928;2023-12-14T02:56:48;89.60;;;27.33;;
35326;SDS011;21436;52.348;20.928;2023-12-14T02:59:17;89.05;;;26.27;;
35326;SDS011;21436;52.348;20.928;2023-12-14T03:01:44;91.93;;;25.38;;
35326;SDS011;21436;52.348;20.928;2023-12-14T03:04:14;84.60;;;26.02;;
35326;SDS011;21436;52.348;20.928;2023-12-14T03:06:43;81.10;;;25.65;;
35326;SDS011;21436;52.348;20.928;2023-12-14T03:09:11;89.20;;;26.00;;
35326;SDS011;21436;52.348;20.928;2023-12-14T03:11:40;93.38;;;27.70;;
35326;SDS011;21436;52.348;20.928;2023-12-14T03:14:09;86.07;;;25.17;;
35326;SDS011;21436;52.348;20.928;2023-12-14T03:16:38;89.65;;;24.00;;
35326;SDS011;21436;52.348;20.928;2023-12-14T03:19:06;93.70;;;27.15;;
35326;SDS011;21436;52.348;20.928;2023-12-14T03:21:35;76.38;;;23.65;;
35326;SDS011;21436;52.348;20.928;2023-12-14T03:24:03;98.68;;;27.92;;
35326;SDS011;21436;52.348;20.928;2023-12-14T03:26:31;93.07;;;26.73;;
35326;SDS011;21436;52.348;20.928;2023-12-14T03:29:00;92.45;;;26.58;;
35326;SDS011;21436;52.348;20.928;2023-12-14T03:31:28;97.55;;;26.23;;
35326;SDS011;21436;52.348;20.928;2023-12-14T03:33:57;83.18;;;25.30;;
35326;SDS011;21436;52.348;20.928;2023-12-14T03:36:25;105.80;;;28.95;;
35326;SDS011;21436;52.348;20.928;2023-12-14T03:38:54;79.03;;;22.40;;
35326;SDS011;21436;52.348;20.928;2023-12-14T03:41:23;87.70;;;25.40;;
35326;SDS011;21436;52.348;20.928;2023-12-14T03:43:51;79.85;;;24.50;;
35326;SDS011;21436;52.348;20.928;2023-12-14T03:46:18;94.30;;;25.02;;
35326;SDS011;21436;52.348;20.928;2023-12-14T03:48:47;106.72;;;26.58;;
35326;SDS011;21436;52.348;20.928;2023-12-14T03:51:18;94.57;;;25.65;;
35326;SDS011;21436;52.348;20.928;2023-12-14T03:56:16;94.43;;;25.02;;
35326;SDS011;21436;52.348;20.928;2023-12-14T03:58:44;98.18;;;26.27;;
35326;SDS011;21436;52.348;20.928;2023-12-14T04:01:18;88.22;;;25.45;;
35326;SDS011;21436;52.348;20.928;2023-12-14T04:03:48;98.72;;;26.50;;
35326;SDS011;21436;52.348;20.928;2023-12-14T04:06:16;84.13;;;25.30;;
35326;SDS011;21436;52.348;20.928;2023-12-14T04:08:45;92.28;;;25.02;;
35326;SDS011;21436;52.348;20.928;2023-12-14T04:11:13;91.15;;;25.25;;
35326;SDS011;21436;52.348;20.928;2023-12-14T04:13:41;87.97;;;24.98;;
35326;SDS011;21436;52.348;20.928;2023-12-14T04:16:09;87.38;;;23.65;;
35326;SDS011;21436;52.348;20.928;2023-12-14T04:18:38;93.00;;;25.50;;
35326;SDS011;21436;52.348;20.928;2023-12-14T04:21:07;84.20;;;26.88;;
35326;SDS011;21436;52.348;20.928;2023-12-14T04:23:35;97.85;;;26.00;;
35326;SDS011;21436;52.348;20.928;2023-12-14T04:26:03;97.95;;;26.65;;
35326;SDS011;21436;52.348;20.928;2023-12-14T04:28:31;100.40;;;28.20;;
35326;SDS011;21436;52.348;20.928;2023-12-14T04:30:59;95.32;;;26.23;;
35326;SDS011;21436;52.348;20.928;2023-12-14T04:33:27;95.55;;;25.55;;
35326;SDS011;21436;52.348;20.928;2023-12-14T04:35:55;101.93;;;27.13;;
35326;SDS011;21436;52.348;20.928;2023-12-14T04:38:24;85.72;;;25.95;;
35326;SDS011;21436;52.348;20.928;2023-12-14T04:40:52;85.70;;;25.52;;
35326;SDS011;21436;52.348;20.928;2023-12-14T04:43:20;103.93;;;25.33;;
35326;SDS011;21436;52.348;20.928;2023-12-14T04:45:48;101.45;;;27.15;;
35326;SDS011;21436;52.348;20.928;2023-12-14T04:48:17;100.57;;;26.00;;
35326;SDS011;21436;52.348;20.928;2023-12-14T04:50:45;91.35;;;26.85;;
35326;SDS011;21436;52.348;20.928;2023-12-14T04:53:14;92.63;;;25.75;;
35326;SDS011;21436;52.348;20.928;2023-12-14T04:55:41;106.22;;;26.92;;
35326;SDS011;21436;52.348;20.928;2023-12-14T04:58:12;102.97;;;26.80;;
35326;SDS011;21436;52.348;20.928;2023-12-14T05:00:40;105.75;;;26.58;;
35326;SDS011;21436;52.348;20.928;2023-12-14T05:03:09;107.95;;;28.23;;
35326;SDS011;21436;52.348;20.928;2023-12-14T05:05:38;104.30;;;27.50;;
35326;SDS011;21436;52.348;20.928;2023-12-14T05:08:07;107.35;;;27.75;;
35326;SDS011;21436;52.348;20.928;2023-12-14T05:10:35;103.22;;;27.20;;
35326;SDS011;21436;52.348;20.928;2023-12-14T05:13:04;95.43;;;26.05;;
35326;SDS011;21436;52.348;20.928;2023-12-14T05:15:31;94.40;;;25.60;;
35326;SDS011;21436;52.348;20.928;2023-12-14T05:18:00;103.15;;;27.38;;
35326;SDS011;21436;52.348;20.928;2023-12-14T05:20:28;109.70;;;28.35;;
35326;SDS011;21436;52.348;20.928;2023-12-14T05:22:57;121.13;;;28.33;;
35326;SDS011;21436;52.348;20.928;2023-12-14T05:25:25;112.88;;;25.42;;
35326;SDS011;21436;52.348;20.928;2023-12-14T05:27:54;104.57;;;27.17;;
35326;SDS011;21436;52.348;20.928;2023-12-14T05:30:21;111.38;;;27.38;;
35326;SDS011;21436;52.348;20.928;2023-12-14T05:32:50;102.18;;;26.83;;
35326;SDS011;21436;52.348;20.928;2023-12-14T05:35:17;118.30;;;28.38;;
35326;SDS011;21436;52.348;20.928;2023-12-14T05:37:46;109.28;;;28.08;;
35326;SDS011;21436;52.348;20.928;2023-12-14T05:40:15;120.25;;;27.83;;
35326;SDS011;21436;52.348;20.928;2023-12-14T05:42:43;111.97;;;26.60;;
35326;SDS011;21436;52.348;20.928;2023-12-14T05:45:12;112.35;;;28.42;;
35326;SDS011;21436;52.348;20.928;2023-12-14T05:47:41;118.28;;;27.27;;
35326;SDS011;21436;52.348;20.928;2023-12-14T05:50:09;112.50;;;28.55;;
35326;SDS011;21436;52.348;20.928;2023-12-14T05:52:38;107.75;;;26.40;;
35326;SDS011;21436;52.348;20.928;2023-12-14T05:55:08;109.85;;;25.27;;
35326;SDS011;21436;52.348;20.928;2023-12-14T05:57:40;104.13;;;28.15;;
35326;SDS011;21436;52.348;20.928;2023-12-14T06:00:08;113.38;;;28.20;;
35326;SDS011;21436;52.348;20.928;2023-12-14T06:02:37;105.55;;;26.23;;
35326;SDS011;21436;52.348;20.928;2023-12-14T06:05:06;107.57;;;27.10;;
35326;SDS011;21436;52.348;20.928;2023-12-14T06:07:36;108.30;;;28.92;;
35326;SDS011;21436;52.348;20.928;2023-12-14T06:10:05;93.13;;;24.27;;
35326;SDS011;21436;52.348;20.928;2023-12-14T06:12:34;117.45;;;29.33;;
35326;SDS011;21436;52.348;20.928;2023-12-14T06:15:02;116.38;;;30.00;;
35326;SDS011;21436;52.348;20.928;2023-12-14T06:17:31;114.00;;;29.08;;
35326;SDS011;21436;52.348;20.928;2023-12-14T06:20:01;122.88;;;30.30;;
35326;SDS011;21436;52.348;20.928;2023-12-14T06:22:31;125.40;;;30.67;;
35326;SDS011;21436;52.348;20.928;2023-12-14T06:25:00;117.60;;;28.63;;
35326;SDS011;21436;52.348;20.928;2023-12-14T06:27:29;114.45;;;29.75;;
35326;SDS011;21436;52.348;20.928;2023-12-14T06:29:57;113.55;;;28.00;;
35326;SDS011;21436;52.348;20.928;2023-12-14T06:32:27;114.20;;;29.58;;
35326;SDS011;21436;52.348;20.928;2023-12-14T06:34:54;126.57;;;29.38;;
35326;SDS011;21436;52.348;20.928;2023-12-14T06:37:22;105.88;;;28.13;;
35326;SDS011;21436;52.348;20.928;2023-12-14T06:39:50;114.25;;;28.65;;
35326;SDS011;21436;52.348;20.928;2023-12-14T06:42:19;113.35;;;29.65;;
35326;SDS011;21436;52.348;20.928;2023-12-14T06:44:48;115.53;;;28.50;;
35326;SDS011;21436;52.348;20.928;2023-12-14T06:47:17;103.82;;;27.05;;
35326;SDS011;21436;52.348;20.928;2023-12-14T06:49:44;116.22;;;26.98;;
35326;SDS011;21436;52.348;20.928;2023-12-14T06:52:13;94.65;;;24.10;;
35326;SDS011;21436;52.348;20.928;2023-12-14T06:54:41;108.85;;;25.42;;
35326;SDS011;21436;52.348;20.928;2023-12-14T06:57:09;119.72;;;29.92;;
35326;SDS011;21436;52.348;20.928;2023-12-14T06:59:37;127.50;;;28.17;;
35326;SDS011;21436;52.348;20.928;2023-12-14T07:02:06;126.40;;;27.75;;
35326;SDS011;21436;52.348;20.928;2023-12-14T07:04:34;99.45;;;26.35;;
35326;SDS011;21436;52.348;20.928;2023-12-14T07:07:02;119.45;;;27.25;;
35326;SDS011;21436;52.348;20.928;2023-12-14T07:09:31;106.88;;;29.27;;
35326;SDS011;21436;52.348;20.928;2023-12-14T07:11:59;87.13;;;24.40;;
35326;SDS011;21436;52.348;20.928;2023-12-14T07:14:30;111.20;;;28.15;;
35326;SDS011;21436;52.348;20.928;2023-12-14T07:16:59;101.93;;;27.48;;
35326;SDS011;21436;52.348;20.928;2023-12-14T07:19:27;120.57;;;29.38;;
35326;SDS011;21436;52.348;20.928;2023-12-14T07:21:56;100.43;;;27.17;;
35326;SDS011;21436;52.348;20.928;2023-12-14T07:24:24;99.68;;;26.02;;
35326;SDS011;21436;52.348;20.928;2023-12-14T07:26:53;102.03;;;26.38;;
35326;SDS011;21436;52.348;20.928;2023-12-14T07:29:21;95.32;;;25.63;;
35326;SDS011;21436;52.348;20.928;2023-12-14T07:31:50;98.40;;;25.08;;
35326;SDS011;21436;52.348;20.928;2023-12-14T07:34:18;89.43;;;26.65;;
35326;SDS011;21436;52.348;20.928;2023-12-14T07:36:48;109.32;;;26.13;;
35326;SDS011;21436;52.348;20.928;2023-12-14T07:39:16;108.97;;;26.52;;
35326;SDS011;21436;52.348;20.928;2023-12-14T07:41:44;98.88;;;27.10;;
35326;SDS011;21436;52.348;20.928;2023-12-14T07:44:13;108.47;;;26.95;;
35326;SDS011;21436;52.348;20.928;2023-12-14T07:46:42;114.60;;;27.23;;
35326;SDS011;21436;52.348;20.928;2023-12-14T07:49:10;119.28;;;27.92;;
35326;SDS011;21436;52.348;20.928;2023-12-14T07:51:39;106.20;;;27.88;;
35326;SDS011;21436;52.348;20.928;2023-12-14T07:54:07;98.88;;;27.75;;
35326;SDS011;21436;52.348;20.928;2023-12-14T07:56:35;96.18;;;25.90;;
35326;SDS011;21436;52.348;20.928;2023-12-14T07:59:03;100.82;;;23.90;;
35326;SDS011;21436;52.348;20.928;2023-12-14T08:01:35;92.47;;;24.55;;
35326;SDS011;21436;52.348;20.928;2023-12-14T08:04:04;97.03;;;24.98;;
35326;SDS011;21436;52.348;20.928;2023-12-14T08:06:33;102.60;;;26.23;;
35326;SDS011;21436;52.348;20.928;2023-12-14T08:09:01;115.78;;;25.50;;
35326;SDS011;21436;52.348;20.928;2023-12-14T08:11:31;105.57;;;27.40;;
35326;SDS011;21436;52.348;20.928;2023-12-14T08:14:00;104.97;;;26.10;;
35326;SDS011;21436;52.348;20.928;2023-12-14T08:16:28;108.53;;;26.58;;
35326;SDS011;21436;52.348;20.928;2023-12-14T08:18:57;115.75;;;27.60;;
35326;SDS011;21436;52.348;20.928;2023-12-14T08:21:25;100.43;;;26.52;;
35326;SDS011;21436;52.348;20.928;2023-12-14T08:23:54;125.20;;;28.05;;
35326;SDS011;21436;52.348;20.928;2023-12-14T08:26:22;117.18;;;27.48;;
35326;SDS011;21436;52.348;20.928;2023-12-14T08:28:50;121.25;;;28.50;;
35326;SDS011;21436;52.348;20.928;2023-12-14T08:31:19;110.70;;;27.88;;
35326;SDS011;21436;52.348;20.928;2023-12-14T08:33:47;107.72;;;26.75;;
35326;SDS011;21436;52.348;20.928;2023-12-14T08:36:18;115.88;;;27.40;;
35326;SDS011;21436;52.348;20.928;2023-12-14T08:38:46;117.32;;;29.42;;
35326;SDS011;21436;52.348;20.928;2023-12-14T08:41:14;127.35;;;29.48;;
35326;SDS011;21436;52.348;20.928;2023-12-14T08:43:43;125.47;;;28.88;;
35326;SDS011;21436;52.348;20.928;2023-12-14T08:46:12;112.88;;;26.17;;
35326;SDS011;21436;52.348;20.928;2023-12-14T08:48:40;132.90;;;28.13;;
35326;SDS011;21436;52.348;20.928;2023-12-14T08:51:11;133.60;;;29.05;;
35326;SDS011;21436;52.348;20.928;2023-12-14T08:53:38;124.88;;;30.13;;
35326;SDS011;21436;52.348;20.928;2023-12-14T08:56:08;116.07;;;28.38;;
35326;SDS011;21436;52.348;20.928;2023-12-14T08:58:36;127.80;;;30.33;;
35326;SDS011;21436;52.348;20.928;2023-12-14T09:01:05;119.22;;;28.92;;
35326;SDS011;21436;52.348;20.928;2023-12-14T09:03:34;108.80;;;26.60;;
35326;SDS011;21436;52.348;20.928;2023-12-14T09:06:03;113.68;;;30.10;;
35326;SDS011;21436;52.348;20.928;2023-12-14T09:08:32;110.45;;;27.02;;
35326;SDS011;21436;52.348;20.928;2023-12-14T09:11:01;108.15;;;26.63;;
35326;SDS011;21436;52.348;20.928;2023-12-14T09:13:30;110.82;;;28.83;;
35326;SDS011;21436;52.348;20.928;2023-12-14T09:15:59;122.55;;;29.73;;
35326;SDS011;21436;52.348;20.928;2023-12-14T09:18:27;113.15;;;26.40;;
35326;SDS011;21436;52.348;20.928;2023-12-14T09:20:56;111.95;;;30.35;;
35326;SDS011;21436;52.348;20.928;2023-12-14T09:23:24;131.43;;;31.35;;
35326;SDS011;21436;52.348;20.928;2023-12-14T09:25:53;116.07;;;28.45;;
35326;SDS011;21436;52.348;20.928;2023-12-14T09:28:24;99.47;;;25.83;;
35326;SDS011;21436;52.348;20.928;2023-12-14T09:30:54;101.78;;;26.98;;
35326;SDS011;21436;52.348;20.928;2023-12-14T09:33:23;97.97;;;28.20;;
35326;SDS011;21436;52.348;20.928;2023-12-14T09:35:52;113.55;;;27.02;;
35326;SDS011;21436;52.348;20.928;2023-12-14T09:38:20;108.22;;;26.42;;
35326;SDS011;21436;52.348;20.928;2023-12-14T09:40:49;111.80;;;26.65;;
35326;SDS011;21436;52.348;20.928;2023-12-14T09:43:17;94.60;;;25.90;;
35326;SDS011;21436;52.348;20.928;2023-12-14T09:45:45;99.50;;;26.17;;
35326;SDS011;21436;52.348;20.928;2023-12-14T09:48:15;113.15;;;27.30;;
35326;SDS011;21436;52.348;20.928;2023-12-14T09:50:45;110.95;;;25.27;;
35326;SDS011;21436;52.348;20.928;2023-12-14T09:53:13;110.68;;;26.70;;
35326;SDS011;21436;52.348;20.928;2023-12-14T09:55:41;94.47;;;25.17;;
35326;SDS011;21436;52.348;20.928;2023-12-14T09:58:10;112.13;;;28.23;;
35326;SDS011;21436;52.348;20.928;2023-12-14T10:00:39;109.45;;;27.52;;
35326;SDS011;21436;52.348;20.928;2023-12-14T10:03:41;106.75;;;25.85;;
35326;SDS011;21436;52.348;20.928;2023-12-14T10:06:03;97.13;;;24.52;;
35326;SDS011;21436;52.348;20.928;2023-12-14T10:08:31;96.07;;;25.50;;
35326;SDS011;21436;52.348;20.928;2023-12-14T10:10:59;98.53;;;24.73;;
35326;SDS011;21436;52.348;20.928;2023-12-14T10:13:46;87.70;;;22.90;;
35326;SDS011;21436;52.348;20.928;2023-12-14T10:19:02;84.10;;;21.50;;
35326;SDS011;21436;52.348;20.928;2023-12-14T10:21:31;84.53;;;23.02;;
35326;SDS011;21436;52.348;20.928;2023-12-14T10:23:59;84.00;;;23.40;;
35326;SDS011;21436;52.348;20.928;2023-12-14T10:26:28;74.18;;;21.85;;
35326;SDS011;21436;52.348;20.928;2023-12-14T10:28:57;86.30;;;23.83;;
35326;SDS011;21436;52.348;20.928;2023-12-14T10:31:26;98.10;;;24.05;;
35326;SDS011;21436;52.348;20.928;2023-12-14T10:33:56;73.18;;;21.10;;
35326;SDS011;21436;52.348;20.928;2023-12-14T10:36:27;83.88;;;23.83;;
35326;SDS011;21436;52.348;20.928;2023-12-14T10:38:57;88.05;;;26.55;;
35326;SDS011;21436;52.348;20.928;2023-12-14T10:41:26;76.55;;;23.88;;
35326;SDS011;21436;52.348;20.928;2023-12-14T10:43:56;78.35;;;22.58;;
35326;SDS011;21436;52.348;20.928;2023-12-14T10:46:46;78.75;;;21.95;;
35326;SDS011;21436;52.348;20.928;2023-12-14T10:49:16;74.28;;;21.02;;
35326;SDS011;21436;52.348;20.928;2023-12-14T10:51:45;67.25;;;20.75;;
35326;SDS011;21436;52.348;20.928;2023-12-14T10:54:15;57.60;;;18.92;;
35326;SDS011;21436;52.348;20.928;2023-12-14T10:56:44;67.22;;;19.98;;
35326;SDS011;21436;52.348;20.928;2023-12-14T10:59:14;69.22;;;18.70;;
35326;SDS011;21436;52.348;20.928;2023-12-14T11:01:45;71.45;;;20.75;;
35326;SDS011;21436;52.348;20.928;2023-12-14T11:04:21;69.32;;;19.30;;
35326;SDS011;21436;52.348;20.928;2023-12-14T11:06:50;65.70;;;20.20;;
35326;SDS011;21436;52.348;20.928;2023-12-14T11:09:22;67.70;;;21.27;;
35326;SDS011;21436;52.348;20.928;2023-12-14T11:14:25;87.18;;;24.73;;
35326;SDS011;21436;52.348;20.928;2023-12-14T11:16:55;77.88;;;25.13;;
35326;SDS011;21436;52.348;20.928;2023-12-14T11:19:25;85.95;;;24.80;;
35326;SDS011;21436;52.348;20.928;2023-12-14T11:24:51;73.32;;;22.33;;
35326;SDS011;21436;52.348;20.928;2023-12-14T11:27:33;75.65;;;22.50;;
35326;SDS011;21436;52.348;20.928;2023-12-14T11:30:12;83.03;;;23.67;;
35326;SDS011;21436;52.348;20.928;2023-12-14T11:32:41;76.38;;;22.33;;
35326;SDS011;21436;52.348;20.928;2023-12-14T11:35:09;71.45;;;21.60;;
35326;SDS011;21436;52.348;20.928;2023-12-14T11:37:40;69.97;;;20.67;;
35326;SDS011;21436;52.348;20.928;2023-12-14T11:40:09;66.88;;;20.90;;
35326;SDS011;21436;52.348;20.928;2023-12-14T11:42:38;69.75;;;22.02;;
35326;SDS011;21436;52.348;20.928;2023-12-14T11:45:06;56.88;;;18.52;;
35326;SDS011;21436;52.348;20.928;2023-12-14T11:47:35;62.08;;;19.40;;
35326;SDS011;21436;52.348;20.928;2023-12-14T11:50:04;62.22;;;19.50;;
35326;SDS011;21436;52.348;20.928;2023-12-14T11:52:34;57.47;;;19.15;;
35326;SDS011;21436;52.348;20.928;2023-12-14T11:55:02;57.83;;;17.52;;
35326;SDS011;21436;52.348;20.928;2023-12-14T11:57:31;67.60;;;21.15;;
35326;SDS011;21436;52.348;20.928;2023-12-14T11:59:59;67.10;;;21.52;;
35326;SDS011;21436;52.348;20.928;2023-12-14T12:02:30;58.03;;;18.50;;
35326;SDS011;21436;52.348;20.928;2023-12-14T12:04:59;49.63;;;14.80;;
35326;SDS011;21436;52.348;20.928;2023-12-14T12:07:28;61.80;;;20.50;;
35326;SDS011;21436;52.348;20.928;2023-12-14T12:09:56;68.80;;;19.60;;
35326;SDS011;21436;52.348;20.928;2023-12-14T12:12:25;71.18;;;21.92;;
35326;SDS011;21436;52.348;20.928;2023-12-14T12:14:53;73.35;;;20.73;;
35326;SDS011;21436;52.348;20.928;2023-12-14T12:17:21;69.85;;;21.92;;
35326;SDS011;21436;52.348;20.928;2023-12-14T12:19:50;72.50;;;21.58;;
35326;SDS011;21436;52.348;20.928;2023-12-14T12:22:18;73.13;;;20.30;;
35326;SDS011;21436;52.348;20.928;2023-12-14T12:24:46;80.57;;;24.13;;
35326;SDS011;21436;52.348;20.928;2023-12-14T12:27:24;71.35;;;23.05;;
35326;SDS011;21436;52.348;20.928;2023-12-14T12:29:53;69.85;;;21.02;;
35326;SDS011;21436;52.348;20.928;2023-12-14T12:32:22;73.57;;;22.85;;
35326;SDS011;21436;52.348;20.928;2023-12-14T12:34:50;62.72;;;21.67;;
35326;SDS011;21436;52.348;20.928;2023-12-14T12:37:20;77.63;;;23.40;;
35326;SDS011;21436;52.348;20.928;2023-12-14T12:39:50;80.82;;;24.33;;
35326;SDS011;21436;52.348;20.928;2023-12-14T12:42:19;70.60;;;22.50;;
35326;SDS011;21436;52.348;20.928;2023-12-14T12:44:51;67.97;;;21.48;;
35326;SDS011;21436;52.348;20.928;2023-12-14T12:47:20;68.18;;;21.60;;
35326;SDS011;21436;52.348;20.928;2023-12-14T12:49:48;64.55;;;21.17;;
35326;SDS011;21436;52.348;20.928;2023-12-14T12:52:17;64.57;;;20.48;;
35326;SDS011;21436;52.348;20.928;2023-12-14T12:54:45;70.35;;;22.67;;
35326;SDS011;21436;52.348;20.928;2023-12-14T12:57:15;66.70;;;21.38;;
35326;SDS011;21436;52.348;20.928;2023-12-14T12:59:43;59.63;;;20.48;;
35326;SDS011;21436;52.348;20.928;2023-12-14T13:02:11;59.88;;;19.65;;
35326;SDS011;21436;52.348;20.928;2023-12-14T13:04:40;61.53;;;20.77;;
35326;SDS011;21436;52.348;20.928;2023-12-14T13:07:08;56.70;;;17.95;;
35326;SDS011;21436;52.348;20.928;2023-12-14T13:09:36;75.03;;;20.85;;
35326;SDS011;21436;52.348;20.928;2023-12-14T13:12:05;66.72;;;22.15;;
35326;SDS011;21436;52.348;20.928;2023-12-14T13:14:34;65.38;;;22.25;;
35326;SDS011;21436;52.348;20.928;2023-12-14T13:17:02;68.55;;;21.08;;
35326;SDS011;21436;52.348;20.928;2023-12-14T13:19:32;69.50;;;21.73;;
35326;SDS011;21436;52.348;20.928;2023-12-14T13:22:01;79.03;;;21.60;;
35326;SDS011;21436;52.348;20.928;2023-12-14T13:24:29;60.03;;;20.27;;
35326;SDS011;21436;52.348;20.928;2023-12-14T13:26:57;67.18;;;21.90;;
35326;SDS011;21436;52.348;20.928;2023-12-14T13:29:26;74.55;;;22.52;;
35326;SDS011;21436;52.348;20.928;2023-12-14T13:31:54;69.90;;;23.02;;
35326;SDS011;21436;52.348;20.928;2023-12-14T13:34:22;65.63;;;20.73;;
35326;SDS011;21436;52.348;20.928;2023-12-14T13:36:51;63.90;;;20.73;;
35326;SDS011;21436;52.348;20.928;2023-12-14T13:39:19;68.43;;;21.88;;
35326;SDS011;21436;52.348;20.928;2023-12-14T13:41:48;81.32;;;24.27;;
35326;SDS011;21436;52.348;20.928;2023-12-14T13:44:17;77.68;;;22.70;;
35326;SDS011;21436;52.348;20.928;2023-12-14T13:46:45;77.07;;;24.58;;
35326;SDS011;21436;52.348;20.928;2023-12-14T13:49:14;74.70;;;23.10;;
35326;SDS011;21436;52.348;20.928;2023-12-14T13:51:43;76.43;;;22.88;;
35326;SDS011;21436;52.348;20.928;2023-12-14T13:54:11;88.97;;;28.67;;
35326;SDS011;21436;52.348;20.928;2023-12-14T13:56:40;80.10;;;26.17;;
35326;SDS011;21436;52.348;20.928;2023-12-14T13:59:09;90.00;;;26.67;;
35326;SDS011;21436;52.348;20.928;2023-12-14T14:01:37;79.75;;;23.88;;
35326;SDS011;21436;52.348;20.928;2023-12-14T14:04:05;95.43;;;26.73;;
35326;SDS011;21436;52.348;20.928;2023-12-14T14:06:34;69.78;;;23.25;;
35326;SDS011;21436;52.348;20.928;2023-12-14T14:09:02;89.85;;;23.75;;
35326;SDS011;21436;52.348;20.928;2023-12-14T14:11:31;87.65;;;25.15;;
35326;SDS011;21436;52.348;20.928;2023-12-14T14:14:00;78.07;;;24.60;;
35326;SDS011;21436;52.348;20.928;2023-12-14T14:16:28;72.20;;;23.90;;
35326;SDS011;21436;52.348;20.928;2023-12-14T14:18:56;72.78;;;24.23;;
35326;SDS011;21436;52.348;20.928;2023-12-14T14:21:24;77.40;;;23.20;;
35326;SDS011;21436;52.348;20.928;2023-12-14T14:23:53;70.93;;;23.25;;
35326;SDS011;21436;52.348;20.928;2023-12-14T14:26:22;69.45;;;22.55;;